Time;durP1;ratioP1;P1;durP2;ratioP2;P2;SDS_P1;SDS_P2;PMS_P1;PMS_P2;Temp;Humidity;BMP_temperature;BMP_pressure;BME280_temperature;BME280_humidity;BME280_pressure;Samples;Min_cycle;Max_cycle;Signal;HPM_P1;HPM_P2
2023/10/26 00:01:41;;;;;;;0.40;0.30;;;;;;;16.55;100.00;94704.25;5132982;27;20438;-59
2023/10/26 00:04:09;;;;;;;0.60;0.40;;;;;;;16.59;100.00;94705.19;5132903;27;20430;-59
2023/10/26 00:06:38;;;;;;;0.40;0.20;;;;;;;16.68;100.00;94707.81;5132034;27;20509;-59
2023/10/26 00:09:08;;;;;;;0.50;0.30;;;;;;;16.69;100.00;94717.44;5132783;27;20443;-59
2023/10/26 00:11:36;;;;;;;0.40;0.20;;;;;;;16.90;100.00;94719.06;5132376;27;20434;-59
2023/10/26 00:14:05;;;;;;;0.40;0.20;;;;;;;17.04;100.00;94719.63;5133271;27;20434;-59
2023/10/26 00:16:33;;;;;;;3.60;0.30;;;;;;;16.99;100.00;94732.41;5132679;27;20435;-59
2023/10/26 00:19:03;;;;;;;2.00;0.30;;;;;;;17.09;100.00;94729.34;5133075;27;20446;-60
2023/10/26 00:21:31;;;;;;;0.80;0.30;;;;;;;16.65;100.00;94724.50;5132006;27;20444;-59
2023/10/26 00:23:59;;;;;;;0.40;0.30;;;;;;;16.46;100.00;94706.16;5132322;27;20969;-60
2023/10/26 00:26:29;;;;;;;0.40;0.30;;;;;;;16.59;100.00;94704.41;5128337;27;20489;-59
2023/10/26 00:28:57;;;;;;;0.40;0.20;;;;;;;16.47;100.00;94679.09;5123683;28;20855;-59
2023/10/26 00:31:26;;;;;;;0.87;0.40;;;;;;;16.49;100.00;94698.25;5132719;28;21015;-59
2023/10/26 00:33:54;;;;;;;0.40;0.30;;;;;;;16.80;100.00;94689.22;5132522;28;20490;-60
2023/10/26 00:36:22;;;;;;;0.40;0.20;;;;;;;16.93;100.00;94683.59;5131834;28;20453;-60
2023/10/26 00:38:51;;;;;;;0.83;0.83;;;;;;;16.76;100.00;94699.78;5132439;28;20477;-60
2023/10/26 00:41:19;;;;;;;0.40;0.20;;;;;;;16.74;100.00;94696.63;5132625;28;20491;-59
2023/10/26 00:43:49;;;;;;;0.40;0.30;;;;;;;17.01;100.00;94693.50;5132482;28;20882;-59
2023/10/26 00:46:17;;;;;;;0.63;0.63;;;;;;;16.66;100.00;94702.00;5106714;28;20442;-59
2023/10/26 00:48:45;;;;;;;0.63;0.30;;;;;;;16.41;100.00;94655.53;5132309;28;20474;-58
2023/10/26 00:51:15;;;;;;;0.50;0.40;;;;;;;16.71;100.00;94693.81;5132534;28;20442;-59
2023/10/26 00:53:43;;;;;;;0.40;0.30;;;;;;;16.81;100.00;94701.47;5135565;27;20434;-59
2023/10/26 00:56:13;;;;;;;0.40;0.30;;;;;;;17.09;100.00;94699.91;5136838;27;20540;-60
2023/10/26 00:58:42;;;;;;;0.40;0.20;;;;;;;16.64;100.00;94714.94;5136330;27;20948;-59
2023/10/26 01:01:12;;;;;;;0.40;0.27;;;;;;;16.54;100.00;94708.06;5136648;27;20490;-60
2023/10/26 01:03:41;;;;;;;0.40;0.20;;;;;;;16.36;100.00;94693.94;5136292;27;20932;-59
2023/10/26 01:06:10;;;;;;;0.40;0.20;;;;;;;16.69;100.00;94714.75;5136729;27;20519;-60
2023/10/26 01:08:39;;;;;;;0.40;0.30;;;;;;;16.69;100.00;94709.41;5135918;27;20983;-60
2023/10/26 01:11:07;;;;;;;0.80;0.40;;;;;;;16.33;100.00;94675.84;5136343;27;20779;-60
2023/10/26 01:13:35;;;;;;;0.40;0.30;;;;;;;16.13;100.00;94679.22;5136370;27;20426;-60
2023/10/26 01:16:04;;;;;;;0.60;0.30;;;;;;;16.16;100.00;94697.28;5136158;27;20944;-60
2023/10/26 01:18:34;;;;;;;0.80;0.37;;;;;;;16.46;100.00;94706.16;5135933;27;20466;-60
2023/10/26 01:21:02;;;;;;;0.40;0.20;;;;;;;16.50;100.00;94707.09;5135973;27;20948;-60
2023/10/26 01:23:32;;;;;;;0.63;0.30;;;;;;;15.80;100.00;94659.47;5136219;27;20470;-60
2023/10/26 01:26:00;;;;;;;0.50;0.43;;;;;;;16.46;100.00;94698.94;5135849;27;20502;-59
2023/10/26 01:28:29;;;;;;;0.40;0.30;;;;;;;16.80;100.00;94689.97;5135984;27;20594;-59
2023/10/26 01:30:57;;;;;;;0.40;0.20;;;;;;;17.04;100.00;94711.59;5135883;27;20770;-60
2023/10/26 01:33:26;;;;;;;1.33;1.10;;;;;;;16.56;100.00;94719.22;5135564;27;20477;-61
2023/10/26 01:35:54;;;;;;;0.60;0.30;;;;;;;16.76;100.00;94720.38;5135676;27;20514;-60
2023/10/26 01:38:23;;;;;;;0.50;0.33;;;;;;;16.39;100.00;94722.69;5136102;27;20881;-61
2023/10/26 01:40:53;;;;;;;0.40;0.20;;;;;;;16.02;100.00;94738.66;5134147;27;20517;-60
2023/10/26 01:43:21;;;;;;;0.40;0.30;;;;;;;16.16;100.00;94744.63;5136244;27;20537;-60
2023/10/26 01:45:49;;;;;;;0.60;0.47;;;;;;;16.15;100.00;94738.50;5135217;27;21001;-60
2023/10/26 01:48:18;;;;;;;0.50;0.40;;;;;;;16.37;100.00;94716.88;5135781;27;20531;-60
2023/10/26 01:50:46;;;;;;;1.80;1.70;;;;;;;16.79;100.00;94719.75;5135271;27;20434;-59
2023/10/26 01:53:14;;;;;;;0.40;0.20;;;;;;;16.88;100.00;94715.13;5135422;27;20492;-60
2023/10/26 01:55:43;;;;;;;0.40;0.30;;;;;;;16.91;100.00;94733.22;5135244;27;20487;-59
2023/10/26 01:58:13;;;;;;;0.50;0.30;;;;;;;17.11;100.00;94735.16;5135265;27;20446;-60
2023/10/26 02:00:41;;;;;;;0.40;0.30;;;;;;;16.81;100.00;94714.84;5135181;27;20529;-60
2023/10/26 02:03:09;;;;;;;0.57;0.33;;;;;;;16.59;100.00;94723.94;5135698;27;20797;-59
2023/10/26 02:05:38;;;;;;;0.70;0.70;;;;;;;16.54;100.00;94665.25;5134391;27;20431;-59
2023/10/26 02:08:06;;;;;;;0.40;0.30;;;;;;;16.95;100.00;94726.91;5135082;27;20998;-59
2023/10/26 02:10:34;;;;;;;0.40;0.20;;;;;;;16.88;100.00;94718.59;5134775;27;20438;-60
2023/10/26 02:13:03;;;;;;;0.40;0.30;;;;;;;16.86;100.00;94722.69;5135223;27;20788;-59
2023/10/26 02:15:33;;;;;;;1.27;0.30;;;;;;;16.78;100.00;94716.28;5108751;27;20445;-60
2023/10/26 02:18:01;;;;;;;0.50;0.30;;;;;;;17.01;100.00;94711.44;5135477;27;20441;-59
2023/10/26 02:20:29;;;;;;;0.53;0.40;;;;;;;16.90;100.00;94702.22;5135007;27;20470;-60
2023/10/26 02:22:58;;;;;;;0.60;0.50;;;;;;;16.43;100.00;94670.16;5134633;27;20946;-60
2023/10/26 02:25:26;;;;;;;0.40;0.20;;;;;;;16.26;100.00;94680.91;5134798;27;20434;-60
2023/10/26 02:27:55;;;;;;;0.53;0.37;;;;;;;16.36;100.00;94691.25;5134079;27;20482;-60
2023/10/26 02:30:23;;;;;;;0.40;0.23;;;;;;;16.59;100.00;94718.59;5135111;27;20934;-60
2023/10/26 02:32:53;;;;;;;0.70;0.70;;;;;;;16.52;100.00;94727.09;5134566;27;20967;-60
2023/10/26 02:35:21;;;;;;;0.80;0.80;;;;;;;16.13;100.00;94695.25;5134526;27;20826;-60
2023/10/26 02:37:49;;;;;;;0.47;0.30;;;;;;;15.49;100.00;94672.22;5134280;27;20490;-60
2023/10/26 02:40:18;;;;;;;0.40;0.30;;;;;;;15.16;100.00;94651.31;5135251;27;20587;-60
2023/10/26 02:42:46;;;;;;;1.03;0.50;;;;;;;15.05;100.00;94620.69;5134443;27;20525;-60
2023/10/26 02:45:14;;;;;;;0.60;0.60;;;;;;;15.36;100.00;94627.75;5134191;27;20840;-61
2023/10/26 02:47:43;;;;;;;0.70;0.40;;;;;;;15.79;100.00;94652.56;5134120;27;20430;-60
2023/10/26 02:50:13;;;;;;;0.40;0.30;;;;;;;15.72;100.00;94644.25;5134431;27;20851;-60
2023/10/26 02:52:42;;;;;;;0.60;0.30;;;;;;;15.74;100.00;94640.16;5134736;27;20427;-61
2023/10/26 02:55:10;;;;;;;0.40;0.30;;;;;;;15.69;100.00;94666.25;5134200;27;21000;-60
2023/10/26 02:57:38;;;;;;;0.70;0.37;;;;;;;16.05;100.00;94665.88;5134722;27;20443;-59
2023/10/26 03:00:08;;;;;;;0.40;0.30;;;;;;;16.22;100.00;94642.53;5133802;27;20442;-58
2023/10/26 03:02:36;;;;;;;0.40;0.30;;;;;;;16.40;100.00;94665.44;5134229;27;20458;-60
2023/10/26 03:05:05;;;;;;;0.50;0.30;;;;;;;15.79;100.00;94639.19;5134130;27;20484;-59
2023/10/26 03:07:35;;;;;;;0.40;0.20;;;;;;;15.67;100.00;94671.91;5134399;27;20799;-58
2023/10/26 03:10:05;;;;;;;0.97;0.87;;;;;;;15.38;100.00;94719.03;5134030;27;20502;-59
2023/10/26 03:12:33;;;;;;;0.60;0.50;;;;;;;15.14;100.00;94725.59;5133752;27;20445;-58
2023/10/26 03:15:02;;;;;;;0.40;0.30;;;;;;;15.09;100.00;94725.75;5133547;27;20435;-60
2023/10/26 03:17:30;;;;;;;0.50;0.30;;;;;;;15.20;100.00;94731.56;5133572;27;20458;-59
2023/10/26 03:19:58;;;;;;;0.60;0.60;;;;;;;15.59;100.00;94711.97;5133877;27;20526;-58
2023/10/26 03:22:27;;;;;;;0.93;0.63;;;;;;;15.54;100.00;94704.91;5134006;27;20430;-59
2023/10/26 03:24:57;;;;;;;0.50;0.40;;;;;;;15.56;100.00;94712.63;5129287;27;20427;-58
2023/10/26 03:27:25;;;;;;;0.40;0.30;;;;;;;15.84;100.00;94697.81;5125046;27;20471;-59
2023/10/26 03:29:54;;;;;;;0.73;0.50;;;;;;;16.15;100.00;94652.16;5133292;27;20502;-59
2023/10/26 03:32:22;;;;;;;0.50;0.33;;;;;;;15.85;100.00;94609.34;5133885;27;20438;-60
2023/10/26 03:34:52;;;;;;;4.40;0.30;;;;;;;15.57;100.00;94634.06;5132925;27;20521;-60
2023/10/26 03:37:20;;;;;;;0.47;0.30;;;;;;;15.54;100.00;94590.06;5132904;27;20444;-59
2023/10/26 03:39:49;;;;;;;0.50;0.40;;;;;;;16.05;100.00;94650.63;5132669;27;20442;-60
2023/10/26 03:42:18;;;;;;;0.80;0.57;;;;;;;15.55;100.00;94657.63;5132663;27;20437;-59
2023/10/26 03:44:47;;;;;;;0.50;0.47;;;;;;;15.50;100.00;94661.25;5133258;27;20845;-59
2023/10/26 03:47:17;;;;;;;0.77;0.50;;;;;;;15.77;100.00;94641.41;5132930;27;20955;-60
2023/10/26 03:49:46;;;;;;;0.47;0.40;;;;;;;15.72;100.00;94630.88;5132700;27;20893;-59
2023/10/26 03:52:14;;;;;;;1.17;0.93;;;;;;;15.97;100.00;94616.66;5132504;27;20439;-59
2023/10/26 03:54:42;;;;;;;0.47;0.40;;;;;;;15.92;100.00;94632.09;5133285;27;20462;-60
2023/10/26 03:57:11;;;;;;;0.50;0.30;;;;;;;15.97;100.00;94616.66;5132675;27;20442;-60
2023/10/26 03:59:41;;;;;;;0.40;0.30;;;;;;;16.00;100.00;94624.06;5132769;27;20517;-59
2023/10/26 04:02:10;;;;;;;0.60;0.40;;;;;;;16.07;100.00;94610.97;5132531;27;20435;-58
2023/10/26 04:04:40;;;;;;;0.50;0.40;;;;;;;16.33;100.00;94654.44;5133028;27;20474;-60
2023/10/26 04:07:08;;;;;;;0.63;0.50;;;;;;;15.93;100.00;94653.16;5132734;27;20445;-62
2023/10/26 04:09:37;;;;;;;0.50;0.40;;;;;;;16.07;100.00;94629.69;5119063;27;20547;-59
2023/10/26 04:12:06;;;;;;;0.40;0.40;;;;;;;15.74;100.00;94597.41;5129676;27;20981;-60
2023/10/26 04:14:35;;;;;;;0.50;0.40;;;;;;;15.89;100.00;94607.59;5131586;27;20437;-60
2023/10/26 04:17:05;;;;;;;1.70;1.17;;;;;;;16.00;100.00;94612.56;5130993;27;20491;-60
2023/10/26 04:19:34;;;;;;;0.63;0.53;;;;;;;16.23;100.00;94617.38;5131992;27;20434;-61
2023/10/26 04:22:05;;;;;;;0.50;0.30;;;;;;;16.37;100.00;94623.28;5105994;27;21036;-61
2023/10/26 04:24:34;;;;;;;0.70;0.40;;;;;;;16.27;100.00;94625.53;5129891;27;20936;-61
2023/10/26 04:27:03;;;;;;;0.50;0.40;;;;;;;16.11;100.00;94614.59;5131605;27;20474;-62
2023/10/26 04:29:32;;;;;;;0.60;0.50;;;;;;;16.13;100.00;94625.75;5132341;27;20888;-62
2023/10/26 04:32:00;;;;;;;0.50;0.30;;;;;;;16.34;100.00;94633.84;5132321;28;20441;-60
2023/10/26 04:34:30;;;;;;;0.50;0.40;;;;;;;16.41;100.00;94620.75;5132012;28;20852;-60
2023/10/26 04:36:59;;;;;;;0.40;0.40;;;;;;;16.66;100.00;94632.44;5132152;28;20449;-60
2023/10/26 04:39:28;;;;;;;0.50;0.30;;;;;;;16.62;100.00;94623.50;5131894;28;20487;-61
2023/10/26 04:41:56;;;;;;;0.50;0.30;;;;;;;16.70;100.00;94625.34;5130963;28;20526;-60
2023/10/26 04:44:24;;;;;;;3.23;0.60;;;;;;;16.39;100.00;94623.72;5132424;28;20438;-60
2023/10/26 04:46:53;;;;;;;0.50;0.40;;;;;;;16.37;100.00;94612.56;5131656;28;20882;-60
2023/10/26 04:49:21;;;;;;;1.03;0.77;;;;;;;16.45;100.00;94625.13;5132232;28;20467;-61
2023/10/26 04:51:51;;;;;;;3.90;0.30;;;;;;;16.46;100.00;94633.94;5132579;28;20770;-60
2023/10/26 04:54:19;;;;;;;0.63;0.40;;;;;;;16.61;100.00;94628.06;5132316;28;20446;-61
2023/10/26 04:56:47;;;;;;;1.13;0.50;;;;;;;16.73;100.00;94646.09;5131335;28;20435;-61
2023/10/26 04:59:16;;;;;;;1.30;0.47;;;;;;;16.68;100.00;94659.66;5132236;28;20442;-61
2023/10/26 05:01:44;;;;;;;0.80;0.80;;;;;;;16.52;100.00;94684.28;5131806;28;20484;-61
2023/10/26 05:04:13;;;;;;;1.13;0.40;;;;;;;16.63;100.00;94687.41;5132094;28;20932;-61
2023/10/26 05:06:41;;;;;;;1.33;0.50;;;;;;;16.74;100.00;94667.19;5131822;28;20434;-61
2023/10/26 05:09:11;;;;;;;0.60;0.50;;;;;;;16.55;100.00;94669.47;5131395;28;20545;-61
2023/10/26 05:11:39;;;;;;;0.57;0.57;;;;;;;16.31;100.00;94655.88;5128502;28;20438;-61
2023/10/26 05:14:09;;;;;;;3.90;0.60;;;;;;;16.33;100.00;94665.16;5131746;28;20442;-61
2023/10/26 05:16:37;;;;;;;0.80;0.60;;;;;;;16.62;100.00;94672.44;5131607;28;20453;-61
2023/10/26 05:19:06;;;;;;;1.00;0.77;;;;;;;16.20;100.00;94674.16;5132019;28;20799;-61
2023/10/26 05:21:34;;;;;;;1.13;0.90;;;;;;;16.18;100.00;94664.88;5131818;28;20427;-61
2023/10/26 05:24:03;;;;;;;0.83;0.80;;;;;;;16.48;100.00;94659.28;5132379;28;20434;-61
2023/10/26 05:26:33;;;;;;;0.60;0.50;;;;;;;16.53;100.00;94661.00;5131589;28;20470;-60
2023/10/26 05:29:04;;;;;;;1.77;1.60;;;;;;;16.61;100.00;94686.16;5131619;28;20438;-60
2023/10/26 05:31:32;;;;;;;1.80;0.73;;;;;;;16.72;100.00;94693.47;5131889;28;20439;-60
2023/10/26 05:34:00;;;;;;;0.73;0.73;;;;;;;16.70;100.00;94685.00;5120125;28;20438;-61
2023/10/26 05:36:29;;;;;;;0.80;0.70;;;;;;;16.83;100.00;94667.94;5132168;28;20926;-60
2023/10/26 05:38:57;;;;;;;1.27;1.17;;;;;;;17.02;100.00;94678.22;5131780;27;20456;-60
2023/10/26 05:41:25;;;;;;;1.27;0.60;;;;;;;16.87;100.00;94679.56;5135691;27;21014;-62
2023/10/26 05:43:55;;;;;;;0.47;0.30;;;;;;;16.85;100.00;94665.69;5127624;27;20936;-60
2023/10/26 05:46:23;;;;;;;0.87;0.40;;;;;;;17.03;100.00;94688.59;5135735;27;20491;-60
2023/10/26 05:48:52;;;;;;;0.60;0.60;;;;;;;17.02;100.00;94692.38;5134878;27;20517;-60
2023/10/26 05:51:20;;;;;;;0.80;0.77;;;;;;;16.95;100.00;94675.28;5135415;27;20509;-62
2023/10/26 05:53:49;;;;;;;1.17;1.17;;;;;;;16.74;100.00;94666.41;5135266;27;20531;-61
2023/10/26 05:56:17;;;;;;;11.00;0.87;;;;;;;16.85;100.00;94683.69;5135072;27;20865;-61
2023/10/26 05:58:45;;;;;;;0.70;0.60;;;;;;;16.22;100.00;94693.34;5135068;27;20811;-61
2023/10/26 06:01:15;;;;;;;2.57;1.00;;;;;;;16.30;100.00;94692.53;5135532;27;20446;-62
2023/10/26 06:03:43;;;;;;;1.43;1.33;;;;;;;16.49;100.00;94700.19;5134964;27;20427;-61
2023/10/26 06:06:12;;;;;;;0.97;0.97;;;;;;;16.86;100.00;94699.41;5135243;27;20442;-55
2023/10/26 06:08:40;;;;;;;0.50;0.40;;;;;;;17.07;100.00;94691.41;5134975;27;20430;-56
2023/10/26 06:11:09;;;;;;;0.87;0.60;;;;;;;17.08;100.00;94698.31;5135191;27;20473;-56
2023/10/26 06:13:37;;;;;;;1.70;1.60;;;;;;;17.18;100.00;94710.56;5135185;27;20435;-54
2023/10/26 06:16:06;;;;;;;1.07;0.50;;;;;;;17.36;100.00;94726.19;5135496;27;20533;-55
2023/10/26 06:18:36;;;;;;;0.60;0.60;;;;;;;17.61;100.00;94724.44;5134871;27;20434;-55
2023/10/26 06:21:05;;;;;;;1.07;0.60;;;;;;;17.64;100.00;94732.63;5135470;27;20438;-55
2023/10/26 06:23:34;;;;;;;1.07;0.87;;;;;;;17.46;100.00;94714.28;5135140;27;20434;-54
2023/10/26 06:26:03;;;;;;;3.63;1.43;;;;;;;17.39;100.00;94695.28;5134313;27;21002;-54
2023/10/26 06:28:32;;;;;;;0.50;0.47;;;;;;;17.22;100.00;94712.28;5135215;27;20442;-56
2023/10/26 06:31:09;;;;;;;5.20;1.23;;;;;;;17.34;100.00;94700.84;5134407;27;20474;-55
2023/10/26 06:33:39;;;;;;;0.70;0.60;;;;;;;17.22;100.00;94722.97;5134373;27;20778;-56
2023/10/26 06:36:09;;;;;;;1.00;0.50;;;;;;;17.15;100.00;94720.03;5134564;27;20470;-55
2023/10/26 06:38:37;;;;;;;0.50;0.40;;;;;;;17.18;100.00;94738.09;5134657;27;20446;-55
2023/10/26 06:41:06;;;;;;;8.40;0.70;;;;;;;17.09;100.00;94727.47;5132803;27;20841;-55
2023/10/26 06:43:35;;;;;;;1.17;1.07;;;;;;;16.62;100.00;94730.53;5134593;27;20487;-54
2023/10/26 06:46:03;;;;;;;1.80;1.43;;;;;;;16.33;100.00;94707.94;5134547;27;20431;-54
2023/10/26 06:48:31;;;;;;;1.33;0.90;;;;;;;16.29;100.00;94708.91;5134270;27;20434;-54
2023/10/26 06:51:04;;;;;;;0.80;0.80;;;;;;;16.06;100.00;94699.53;5134070;27;20504;-55
2023/10/26 06:53:32;;;;;;;14.47;1.40;;;;;;;16.26;100.00;94669.44;5133602;27;20442;-54
2023/10/26 06:56:00;;;;;;;2.40;1.73;;;;;;;17.04;100.00;94690.16;5133874;27;20449;-55
2023/10/26 06:58:29;;;;;;;0.63;0.63;;;;;;;17.22;100.00;94696.19;5134025;27;20933;-55
2023/10/26 07:00:57;;;;;;;0.60;0.50;;;;;;;16.93;100.00;94691.63;5134312;27;20809;-55
2023/10/26 07:03:25;;;;;;;0.90;0.60;;;;;;;17.38;100.00;94689.13;5134006;27;20466;-55
2023/10/26 07:05:54;;;;;;;0.60;0.50;;;;;;;17.73;100.00;94685.09;5133385;27;20435;-55
2023/10/26 07:08:24;;;;;;;0.60;0.60;;;;;;;18.03;100.00;94699.19;5127998;27;20925;-54
2023/10/26 07:10:53;;;;;;;0.40;0.37;;;;;;;18.56;100.00;94708.25;5134002;27;20481;-54
2023/10/26 07:13:22;;;;;;;0.40;0.30;;;;;;;18.69;100.00;94721.38;5133494;27;20467;-54
2023/10/26 07:15:51;;;;;;;0.60;0.40;;;;;;;18.92;100.00;94721.72;5133941;27;20438;-55
2023/10/26 07:18:19;;;;;;;0.50;0.30;;;;;;;19.16;100.00;94718.22;5132986;27;20581;-54
2023/10/26 07:20:49;;;;;;;0.87;0.40;;;;;;;19.29;100.00;94727.84;5133909;27;20940;-55
2023/10/26 07:23:19;;;;;;;0.70;0.40;;;;;;;19.49;100.00;94743.88;5133498;27;20435;-55
2023/10/26 07:25:49;;;;;;;0.97;0.40;;;;;;;19.42;100.00;94735.59;5133408;27;20808;-54
2023/10/26 07:28:18;;;;;;;0.50;0.40;;;;;;;19.59;100.00;94716.50;5133201;27;20436;-55
2023/10/26 07:30:50;;;;;;;14.93;0.77;;;;;;;19.70;100.00;94721.41;5133690;27;20519;-55
2023/10/26 07:33:19;;;;;;;0.50;0.33;;;;;;;20.01;100.00;94722.31;5106762;27;20435;-56
2023/10/26 07:35:52;;;;;;;1.00;0.57;;;;;;;19.99;100.00;94729.16;5133157;27;20522;-54
2023/10/26 07:38:20;;;;;;;0.60;0.50;;;;;;;19.23;100.00;94739.94;5125037;27;20867;-54
2023/10/26 07:41:05;;;;;;;1.43;0.40;;;;;;;19.49;100.00;94743.06;5130940;27;20426;-53
2023/10/26 07:43:34;;;;;;;0.90;0.90;;;;;;;19.17;100.00;94763.56;5133042;27;20438;-53
2023/10/26 07:46:03;;;;;;;2.03;1.93;;;;;;;19.09;100.00;94763.69;5132211;27;20442;-54
2023/10/26 07:48:31;;;;;;;4.37;0.43;;;;;;;19.34;100.00;94747.22;5133284;27;20503;-54
2023/10/26 07:51:00;;;;;;;0.90;0.50;;;;;;;19.59;100.00;94753.38;5132663;27;20549;-56
2023/10/26 07:53:29;;;;;;;0.80;0.60;;;;;;;19.55;100.00;94768.63;5133118;27;20517;-53
2023/10/26 07:55:57;;;;;;;0.83;0.67;;;;;;;19.01;100.00;94768.03;5106327;27;20880;-52
2023/10/26 07:58:27;;;;;;;12.00;1.17;;;;;;;19.00;100.00;94769.16;5132851;27;20438;-55
2023/10/26 08:00:56;;;;;;;0.50;0.30;;;;;;;19.15;100.00;94724.75;5133107;27;20862;-56
2023/10/26 08:03:27;;;;;;;1.33;0.40;;;;;;;19.26;100.00;94725.84;5131707;27;20439;-56
2023/10/26 08:05:57;;;;;;;0.50;0.40;;;;;;;19.43;100.00;94742.53;5132905;27;20828;-55
2023/10/26 08:08:25;;;;;;;1.37;0.47;;;;;;;19.75;100.00;94773.06;5132443;27;20430;-55
2023/10/26 08:10:54;;;;;;;0.70;0.53;;;;;;;19.91;100.00;94762.38;5132878;27;20518;-55
2023/10/26 08:13:22;;;;;;;0.60;0.60;;;;;;;19.77;100.00;94741.22;5132393;27;20514;-55
2023/10/26 08:15:52;;;;;;;0.67;0.40;;;;;;;19.95;100.00;94755.19;5132765;27;20948;-55
2023/10/26 08:18:42;;;;;;;3.73;0.40;;;;;;;20.11;100.00;94759.47;5131992;27;20827;-55
2023/10/26 08:21:10;;;;;;;1.23;0.60;;;;;;;19.84;100.00;94754.09;5132995;27;20829;-56
2023/10/26 08:23:39;;;;;;;1.30;1.20;;;;;;;19.37;100.00;94632.94;5132125;27;20468;-55
2023/10/26 08:26:08;;;;;;;1.60;0.83;;;;;;;20.44;100.00;94753.84;5131542;27;20478;-55
2023/10/26 08:28:37;;;;;;;1.57;0.53;;;;;;;20.45;100.00;94749.25;5131890;27;20810;-55
2023/10/26 08:31:07;;;;;;;0.50;0.33;;;;;;;20.59;100.00;94750.41;5132175;27;20503;-55
2023/10/26 08:33:36;;;;;;;0.60;0.37;;;;;;;20.83;100.00;94742.19;5132022;27;20810;-55
2023/10/26 08:36:05;;;;;;;0.87;0.70;;;;;;;20.85;100.00;94728.38;5132070;28;20431;-55
2023/10/26 08:38:33;;;;;;;7.40;0.50;;;;;;;20.35;100.00;94736.31;5132505;28;20438;-55
2023/10/26 08:41:02;;;;;;;1.03;0.40;;;;;;;20.34;99.53;94714.00;5131741;28;20543;-56
2023/10/26 08:43:33;;;;;;;1.17;0.50;;;;;;;20.37;100.00;94717.91;5132056;28;20808;-56
2023/10/26 08:46:03;;;;;;;2.33;2.23;;;;;;;20.17;100.00;94725.03;5132191;28;20438;-56
2023/10/26 08:48:38;;;;;;;1.97;1.83;;;;;;;20.39;100.00;94718.34;5132674;28;20956;-56
2023/10/26 08:51:07;;;;;;;0.60;0.40;;;;;;;20.46;99.66;94697.00;5132174;28;20517;-56
2023/10/26 08:53:35;;;;;;;3.07;0.60;;;;;;;20.83;96.20;94723.34;5112654;28;20440;-55
2023/10/26 08:56:04;;;;;;;0.77;0.50;;;;;;;20.68;94.50;94715.25;5131072;28;20503;-56
2023/10/26 08:58:33;;;;;;;0.73;0.70;;;;;;;20.66;96.85;94688.69;5129503;28;20436;-56
2023/10/26 09:01:04;;;;;;;0.40;0.30;;;;;;;20.96;97.27;94699.00;5125417;28;20441;-56
2023/10/26 09:03:35;;;;;;;0.40;0.30;;;;;;;21.15;95.74;94707.94;5131204;28;20441;-56
2023/10/26 09:06:04;;;;;;;0.40;0.20;;;;;;;21.05;97.07;94711.16;5132245;28;20481;-56
2023/10/26 09:08:33;;;;;;;0.50;0.50;;;;;;;20.50;100.00;94642.13;5131907;28;20438;-56
2023/10/26 09:11:04;;;;;;;0.40;0.30;;;;;;;20.51;100.00;94629.44;5132198;28;20438;-56
2023/10/26 09:13:33;;;;;;;4.43;0.50;;;;;;;20.84;99.18;94700.66;5133036;27;20955;-56
2023/10/26 09:16:01;;;;;;;0.77;0.70;;;;;;;20.78;94.74;94667.03;5136162;27;20430;-56
2023/10/26 09:18:31;;;;;;;0.40;0.30;;;;;;;20.99;94.31;94688.31;5135862;27;20462;-56
2023/10/26 09:21:05;;;;;;;0.73;0.73;;;;;;;20.85;97.96;94679.88;5136042;27;20454;-56
2023/10/26 09:23:35;;;;;;;4.43;0.57;;;;;;;20.68;95.49;94697.19;5135852;27;21010;-57
2023/10/26 09:26:04;;;;;;;0.97;0.70;;;;;;;20.84;99.38;94676.44;5134758;27;20433;-55
2023/10/26 09:28:48;;;;;;;0.40;0.30;;;;;;;20.80;98.57;94655.91;5135358;27;20440;-61
2023/10/26 09:31:17;;;;;;;4.93;0.50;;;;;;;20.70;97.53;94677.97;5135350;27;20430;-59
2023/10/26 09:33:46;;;;;;;0.70;0.37;;;;;;;20.72;97.13;94681.88;5135643;27;20935;-58
2023/10/26 09:36:17;;;;;;;0.40;0.30;;;;;;;21.12;95.89;94657.47;5135202;27;20438;-59
2023/10/26 09:38:47;;;;;;;0.50;0.40;;;;;;;21.52;93.23;94682.22;5135558;27;20850;-59
2023/10/26 09:41:18;;;;;;;0.50;0.30;;;;;;;21.60;91.24;94676.97;5135422;27;20431;-59
2023/10/26 09:43:47;;;;;;;0.50;0.50;;;;;;;21.57;86.86;94662.28;5135935;27;20430;-58
2023/10/26 09:46:17;;;;;;;7.03;0.50;;;;;;;21.83;86.49;94694.03;5135746;27;20466;-58
2023/10/26 09:48:46;;;;;;;1.17;0.60;;;;;;;22.18;86.62;94692.03;5134963;27;20503;-58
2023/10/26 09:51:19;;;;;;;0.40;0.40;;;;;;;22.08;86.16;94677.22;5135446;27;20437;-57
2023/10/26 09:53:49;;;;;;;2.60;0.30;;;;;;;22.47;87.65;94686.00;5134910;27;20502;-57
2023/10/26 09:56:23;;;;;;;0.40;0.30;;;;;;;22.55;83.32;94668.78;5134876;27;20433;-57
2023/10/26 09:58:53;;;;;;;0.50;0.30;;;;;;;22.77;86.44;94667.25;5134877;27;20506;-57
2023/10/26 10:01:32;;;;;;;0.40;0.30;;;;;;;22.95;82.45;94664.81;5135090;27;20868;-57
2023/10/26 10:04:01;;;;;;;0.60;0.30;;;;;;;22.69;81.93;94663.63;5135788;27;20434;-57
2023/10/26 10:06:48;;;;;;;0.70;0.70;;;;;;;22.26;81.72;94650.53;5134696;27;20439;-57
2023/10/26 10:09:19;;;;;;;0.60;0.30;;;;;;;22.32;83.32;94657.19;5135151;27;20441;-57
2023/10/26 10:12:26;;;;;;;0.40;0.30;;;;;;;22.71;81.34;94644.38;5134785;27;20499;-57
2023/10/26 10:14:57;;;;;;;0.70;0.70;;;;;;;22.94;75.85;94647.06;5134638;27;20438;-57
2023/10/26 10:18:05;;;;;;;0.40;0.20;;;;;;;23.60;73.78;94641.06;5134826;27;20963;-57
2023/10/26 10:20:36;;;;;;;0.40;0.20;;;;;;;23.74;71.77;94642.00;5111472;27;20795;-58
2023/10/26 10:23:06;;;;;;;0.73;0.73;;;;;;;24.21;69.27;94637.91;5135300;27;20444;-56
2023/10/26 10:26:00;;;;;;;0.73;0.73;;;;;;;24.25;69.80;94639.50;5134016;27;20939;-57
2023/10/26 10:28:53;;;;;;;1.13;1.13;;;;;;;25.12;68.21;94632.53;5093599;28;20436;-58
2023/10/26 10:31:39;;;;;;;0.47;0.33;;;;;;;25.69;66.12;94634.41;5093608;28;20434;-59
2023/10/26 10:34:10;;;;;;;0.40;0.20;;;;;;;26.33;64.94;94629.97;5093352;28;20472;-59
2023/10/26 10:37:10;;;;;;;0.40;0.30;;;;;;;26.51;64.11;94630.00;5068303;28;20539;-59
2023/10/26 10:40:10;;;;;;;0.40;0.20;;;;;;;26.82;62.85;94618.38;5092979;28;20520;-59
2023/10/26 10:42:39;;;;;;;0.70;0.30;;;;;;;26.85;60.77;94614.09;5090225;28;20433;-59
2023/10/26 10:45:12;;;;;;;0.40;0.30;;;;;;;27.13;58.99;94605.94;5083220;28;20444;-60
2023/10/26 10:47:41;;;;;;;15.33;0.63;;;;;;;27.03;57.36;94601.28;5092746;28;20440;-60
2023/10/26 10:50:20;;;;;;;0.40;0.20;;;;;;;27.29;58.28;94600.84;5093284;28;20440;-60
2023/10/26 10:52:50;;;;;;;0.67;0.60;;;;;;;27.42;53.81;94602.00;5067522;28;20575;-60
2023/10/26 10:55:25;;;;;;;1.07;0.20;;;;;;;27.51;54.89;94583.31;5091444;28;20453;-60
2023/10/26 10:57:58;;;;;;;0.40;0.20;;;;;;;27.36;52.57;94583.72;5086576;28;20837;-60
2023/10/26 11:00:28;;;;;;;0.40;0.40;;;;;;;27.71;53.42;94586.34;5085096;28;20437;-60
2023/10/26 11:02:57;;;;;;;0.30;0.20;;;;;;;28.02;53.00;94581.94;5086130;28;20467;-59
2023/10/26 11:05:37;;;;;;;0.40;0.30;;;;;;;27.79;49.66;94566.06;5092682;28;20860;-60
2023/10/26 11:08:06;;;;;;;0.40;0.30;;;;;;;27.07;52.20;94583.00;5090922;28;20523;-60
2023/10/26 11:10:36;;;;;;;2.50;0.30;;;;;;;26.67;51.93;94573.31;5092122;28;20440;-58
2023/10/26 11:13:05;;;;;;;0.30;0.20;;;;;;;26.36;49.71;94572.13;5092790;28;20868;-58
2023/10/26 11:15:34;;;;;;;0.40;0.30;;;;;;;26.08;49.89;94574.81;5093173;28;20436;-57
2023/10/26 11:18:04;;;;;;;0.40;0.30;;;;;;;26.20;50.06;94566.31;5092847;28;20527;-58
2023/10/26 11:20:33;;;;;;;0.30;0.20;;;;;;;26.34;50.27;94563.59;5092760;28;20440;-58
2023/10/26 11:23:02;;;;;;;0.50;0.40;;;;;;;26.74;50.58;94562.41;5092028;28;20440;-58
2023/10/26 11:25:30;;;;;;;1.23;0.30;;;;;;;27.82;47.20;94540.78;5092316;28;20957;-61
2023/10/26 11:28:00;;;;;;;0.90;0.90;;;;;;;28.25;48.69;94517.56;5129090;27;20466;-61
2023/10/26 11:30:30;;;;;;;0.30;0.20;;;;;;;29.33;47.80;94514.25;5133390;27;20445;-60
2023/10/26 11:32:59;;;;;;;0.40;0.20;;;;;;;30.00;44.44;94509.91;5132745;27;20527;-60
2023/10/26 11:35:27;;;;;;;0.30;0.30;;;;;;;30.70;40.51;94486.13;5133009;27;20442;-59
2023/10/26 11:38:05;;;;;;;0.40;0.30;;;;;;;31.22;40.75;94494.59;5132031;27;20487;-58
2023/10/26 11:40:33;;;;;;;0.30;0.20;;;;;;;31.11;38.99;94494.03;5133128;27;20943;-59